EDW29Y LSZH-EGPH
Flight info
| Callsign | EDW29Y |
|---|---|
| Flight time | 1h 49m |
| Altitude | 36000 |
| Route | VEBIT T10 TORPA DCT REKLA DCT RLP DCT ROTSI DCT KOTUN DCT AMAXA DCT VESAN DCT RATUK DCT SOVAT L613 LEHOC DCT INPIP |
| Aircraft | A343/H-SDE2E3FGHIJ4J5M1RWXY/LB1D1 |
Departure
| Time | 2026-04-26 08:36 |
|---|---|
| Airport | Zürich Airport (LSZH) |
Arrival
| Time | 2026-04-26 10:26 |
|---|---|
| Airport | Edinburgh Airport (EGPH) |
| Time | Latitude | Longitude | Altitude | Speed | Heading |
|---|---|---|---|---|---|
| 2026-04-26 08:14 | 47.46036 | 8.55833 | 1415 ft | 0 kts | 6° |
| 2026-04-26 08:15 | 47.46155 | 8.55779 | 1413 ft | 0 kts | 186° |
| 2026-04-26 08:27 | 47.46170 | 8.55781 | 1415 ft | 4 kts | 186° |
| 2026-04-26 08:28 | 47.46196 | 8.55785 | 1413 ft | 3 kts | 186° |
| 2026-04-26 08:28 | 47.46221 | 8.55794 | 1413 ft | 4 kts | 217° |
| 2026-04-26 08:28 | 47.46234 | 8.55823 | 1416 ft | 4 kts | 267° |
| 2026-04-26 08:28 | 47.46233 | 8.55862 | 1415 ft | 4 kts | 271° |
| 2026-04-26 08:29 | 47.46232 | 8.55873 | 1414 ft | 0 kts | 266° |
| 2026-04-26 08:30 | 47.46232 | 8.55834 | 1416 ft | 10 kts | 272° |
| 2026-04-26 08:30 | 47.46242 | 8.55687 | 1404 ft | 17 kts | 276° |
| 2026-04-26 08:31 | 47.46255 | 8.55501 | 1408 ft | 19 kts | 275° |
| 2026-04-26 08:31 | 47.46270 | 8.55288 | 1403 ft | 22 kts | 276° |
| 2026-04-26 08:31 | 47.46287 | 8.55049 | 1400 ft | 25 kts | 275° |
| 2026-04-26 08:31 | 47.46305 | 8.54803 | 1393 ft | 21 kts | 277° |
| 2026-04-26 08:32 | 47.46381 | 8.54692 | 1385 ft | 16 kts | 335° |
| 2026-04-26 08:32 | 47.46479 | 8.54625 | 1403 ft | 15 kts | 335° |
| 2026-04-26 08:32 | 47.46574 | 8.54560 | 1402 ft | 15 kts | 335° |
| 2026-04-26 08:32 | 47.46678 | 8.54488 | 1387 ft | 18 kts | 335° |
| 2026-04-26 08:33 | 47.46800 | 8.54414 | 1384 ft | 20 kts | 338° |
| 2026-04-26 08:33 | 47.46928 | 8.54329 | 1384 ft | 20 kts | 333° |
| 2026-04-26 08:33 | 47.47053 | 8.54244 | 1385 ft | 20 kts | 334° |
| 2026-04-26 08:33 | 47.47175 | 8.54160 | 1386 ft | 19 kts | 335° |
| 2026-04-26 08:34 | 47.47296 | 8.54076 | 1402 ft | 19 kts | 335° |
| 2026-04-26 08:34 | 47.47415 | 8.53995 | 1399 ft | 18 kts | 335° |
| 2026-04-26 08:34 | 47.47526 | 8.53919 | 1407 ft | 17 kts | 335° |
| 2026-04-26 08:34 | 47.47605 | 8.53815 | 1410 ft | 14 kts | 289° |
| 2026-04-26 08:35 | 47.47589 | 8.53685 | 1407 ft | 13 kts | 246° |
| 2026-04-26 08:35 | 47.47543 | 8.53620 | 1410 ft | 6 kts | 185° |
| 2026-04-26 08:35 | 47.47421 | 8.53697 | 1407 ft | 44 kts | 155° |
| 2026-04-26 08:35 | 47.46923 | 8.54041 | 1384 ft | 111 kts | 155° |
| 2026-04-26 08:36 | 47.46053 | 8.54639 | 1404 ft | 162 kts | 155° |
| 2026-04-26 08:36 | 47.44953 | 8.55395 | 1780 ft | 181 kts | 153° |
| 2026-04-26 08:36 | 47.43778 | 8.56202 | 2397 ft | 192 kts | 152° |
| 2026-04-26 08:36 | 47.42824 | 8.57576 | 2955 ft | 204 kts | 108° |
| 2026-04-26 08:37 | 47.42936 | 8.59684 | 3626 ft | 218 kts | 61° |
| 2026-04-26 08:37 | 47.44055 | 8.61072 | 4746 ft | 218 kts | 20° |
| 2026-04-26 08:37 | 47.45575 | 8.61080 | 5733 ft | 228 kts | 342° |
| 2026-04-26 08:37 | 47.46828 | 8.59659 | 6777 ft | 231 kts | 308° |
| 2026-04-26 08:38 | 47.47628 | 8.57609 | 7767 ft | 233 kts | 288° |
| 2026-04-26 08:38 | 47.47922 | 8.55204 | 8517 ft | 248 kts | 275° |
| 2026-04-26 08:38 | 47.47734 | 8.52562 | 9068 ft | 271 kts | 252° |
| 2026-04-26 08:38 | 47.47144 | 8.49852 | 9869 ft | 281 kts | 255° |
| 2026-04-26 08:39 | 47.46636 | 8.47028 | 10657 ft | 290 kts | 258° |
| 2026-04-26 08:39 | 47.46140 | 8.44024 | 11101 ft | 311 kts | 258° |
| 2026-04-26 08:39 | 47.45607 | 8.40823 | 11496 ft | 331 kts | 257° |
| 2026-04-26 08:39 | 47.45023 | 8.37497 | 11995 ft | 345 kts | 256° |
| 2026-04-26 08:40 | 47.44384 | 8.34034 | 12722 ft | 352 kts | 256° |
| 2026-04-26 08:40 | 47.43718 | 8.30532 | 13586 ft | 356 kts | 256° |
| 2026-04-26 08:40 | 47.43036 | 8.27012 | 14458 ft | 358 kts | 256° |
| 2026-04-26 08:40 | 47.42341 | 8.23444 | 15141 ft | 364 kts | 255° |
| 2026-04-26 08:41 | 47.41655 | 8.19809 | 15842 ft | 370 kts | 258° |
| 2026-04-26 08:41 | 47.41286 | 8.16048 | 16641 ft | 371 kts | 266° |
| 2026-04-26 08:41 | 47.41133 | 8.12224 | 17433 ft | 374 kts | 269° |
| 2026-04-26 08:41 | 47.41075 | 8.08426 | 18201 ft | 378 kts | 270° |
| 2026-04-26 08:42 | 47.41066 | 8.04519 | 18789 ft | 384 kts | 271° |
| 2026-04-26 08:42 | 47.41079 | 8.00548 | 19373 ft | 390 kts | 271° |
| 2026-04-26 08:42 | 47.41095 | 7.96539 | 20130 ft | 390 kts | 271° |
| 2026-04-26 08:42 | 47.41106 | 7.92526 | 20827 ft | 392 kts | 270° |
| 2026-04-26 08:43 | 47.41109 | 7.88485 | 21488 ft | 395 kts | 270° |
| 2026-04-26 08:43 | 47.41104 | 7.84407 | 22086 ft | 399 kts | 270° |
| 2026-04-26 08:43 | 47.41095 | 7.80287 | 22674 ft | 404 kts | 270° |
| 2026-04-26 08:43 | 47.41082 | 7.76127 | 23281 ft | 406 kts | 269° |
| 2026-04-26 08:44 | 47.41067 | 7.71946 | 23902 ft | 409 kts | 269° |
| 2026-04-26 08:44 | 47.41050 | 7.67736 | 24392 ft | 412 kts | 269° |
| 2026-04-26 08:44 | 47.41032 | 7.63488 | 24848 ft | 415 kts | 269° |
| 2026-04-26 08:44 | 47.41013 | 7.59267 | 25309 ft | 418 kts | 269° |
| 2026-04-26 08:45 | 47.40993 | 7.54961 | 25785 ft | 421 kts | 269° |
| 2026-04-26 08:45 | 47.40970 | 7.50631 | 26265 ft | 423 kts | 269° |
| 2026-04-26 08:45 | 47.40946 | 7.46278 | 26720 ft | 425 kts | 269° |
| 2026-04-26 08:45 | 47.40919 | 7.41909 | 27196 ft | 427 kts | 269° |
| 2026-04-26 08:46 | 47.40891 | 7.37529 | 27652 ft | 429 kts | 269° |
| 2026-04-26 08:46 | 47.40861 | 7.33117 | 28090 ft | 431 kts | 268° |
| 2026-04-26 08:46 | 47.40830 | 7.28681 | 28519 ft | 433 kts | 268° |
| 2026-04-26 08:46 | 47.40798 | 7.24282 | 28932 ft | 435 kts | 268° |
| 2026-04-26 08:47 | 47.40765 | 7.19803 | 29333 ft | 438 kts | 268° |
| 2026-04-26 08:47 | 47.40928 | 7.15302 | 29734 ft | 441 kts | 276° |
| 2026-04-26 08:47 | 47.41418 | 7.10818 | 30113 ft | 444 kts | 279° |
| 2026-04-26 08:47 | 47.42012 | 7.06335 | 30482 ft | 446 kts | 280° |
| 2026-04-26 08:48 | 47.42661 | 7.01843 | 30795 ft | 448 kts | 281° |
| 2026-04-26 08:48 | 47.43336 | 6.97333 | 31097 ft | 451 kts | 281° |
| 2026-04-26 08:48 | 47.44016 | 6.92815 | 31402 ft | 453 kts | 281° |
| 2026-04-26 08:48 | 47.44695 | 6.88269 | 31751 ft | 453 kts | 281° |
| 2026-04-26 08:49 | 47.45357 | 6.83789 | 32191 ft | 452 kts | 281° |
| 2026-04-26 08:49 | 47.46020 | 6.79260 | 32602 ft | 450 kts | 280° |
| 2026-04-26 08:49 | 47.46675 | 6.74741 | 33027 ft | 449 kts | 280° |
| 2026-04-26 08:49 | 47.47326 | 6.70230 | 33420 ft | 448 kts | 280° |
| 2026-04-26 08:50 | 47.47894 | 6.65707 | 33785 ft | 447 kts | 276° |
| 2026-04-26 08:50 | 47.48285 | 6.61146 | 34120 ft | 447 kts | 275° |
| 2026-04-26 08:50 | 47.48639 | 6.56582 | 34452 ft | 446 kts | 275° |
| 2026-04-26 08:50 | 47.48972 | 6.52022 | 34766 ft | 446 kts | 275° |
| 2026-04-26 08:51 | 47.49608 | 6.42980 | 35344 ft | 445 kts | 275° |
| 2026-04-26 08:51 | 47.49926 | 6.38421 | 35626 ft | 445 kts | 275° |
| 2026-04-26 08:51 | 47.50242 | 6.33864 | 35904 ft | 445 kts | 275° |
| 2026-04-26 08:52 | 47.50559 | 6.29307 | 36154 ft | 446 kts | 275° |
| 2026-04-26 08:52 | 47.51193 | 6.20147 | 36225 ft | 447 kts | 275° |
| 2026-04-26 08:53 | 47.51822 | 6.10986 | 36214 ft | 452 kts | 275° |
| 2026-04-26 08:53 | 47.52453 | 6.01672 | 36212 ft | 464 kts | 275° |
| 2026-04-26 08:54 | 47.53220 | 5.92129 | 36212 ft | 469 kts | 281° |
| 2026-04-26 08:54 | 47.55471 | 5.83115 | 36207 ft | 468 kts | 300° |
| 2026-04-26 08:55 | 47.59441 | 5.75469 | 36207 ft | 470 kts | 310° |
| 2026-04-26 08:55 | 47.63835 | 5.68363 | 36208 ft | 471 kts | 312° |
| 2026-04-26 08:56 | 47.68310 | 5.61257 | 36221 ft | 471 kts | 312° |
| 2026-04-26 08:56 | 47.72748 | 5.54125 | 36205 ft | 470 kts | 311° |
| 2026-04-26 08:57 | 47.77161 | 5.46962 | 36220 ft | 469 kts | 311° |
| 2026-04-26 08:57 | 47.81557 | 5.39795 | 36223 ft | 468 kts | 311° |
| 2026-04-26 08:58 | 47.85910 | 5.32678 | 36227 ft | 468 kts | 311° |
| 2026-04-26 08:58 | 47.90287 | 5.25505 | 36213 ft | 468 kts | 311° |
| 2026-04-26 08:59 | 47.94662 | 5.18329 | 36230 ft | 467 kts | 311° |
| 2026-04-26 08:59 | 47.99024 | 5.11138 | 36231 ft | 467 kts | 311° |
| 2026-04-26 09:00 | 48.03343 | 5.03998 | 36230 ft | 466 kts | 311° |
| 2026-04-26 09:00 | 48.07675 | 4.96819 | 36233 ft | 465 kts | 311° |
| 2026-04-26 09:01 | 48.11995 | 4.89644 | 36235 ft | 465 kts | 311° |
| 2026-04-26 09:01 | 48.16318 | 4.82445 | 36230 ft | 464 kts | 311° |
| 2026-04-26 09:02 | 48.20628 | 4.75248 | 36232 ft | 464 kts | 311° |
| 2026-04-26 09:02 | 48.24904 | 4.68087 | 36229 ft | 463 kts | 311° |
| 2026-04-26 09:03 | 48.29193 | 4.60891 | 36229 ft | 462 kts | 311° |
| 2026-04-26 09:03 | 48.33474 | 4.53687 | 36234 ft | 462 kts | 311° |
| 2026-04-26 09:04 | 48.37746 | 4.46468 | 36245 ft | 462 kts | 311° |
| 2026-04-26 09:04 | 48.41982 | 4.39294 | 36245 ft | 462 kts | 311° |
| 2026-04-26 09:05 | 48.46243 | 4.32059 | 36241 ft | 462 kts | 311° |
| 2026-04-26 09:05 | 48.50495 | 4.24820 | 36245 ft | 460 kts | 311° |
| 2026-04-26 09:06 | 48.54729 | 4.17594 | 36258 ft | 459 kts | 311° |
| 2026-04-26 09:06 | 48.58955 | 4.10360 | 36267 ft | 459 kts | 311° |
| 2026-04-26 09:07 | 48.63137 | 4.03181 | 36259 ft | 458 kts | 311° |
| 2026-04-26 09:07 | 48.67343 | 3.95942 | 36261 ft | 458 kts | 311° |
| 2026-04-26 09:08 | 48.71592 | 3.88760 | 36263 ft | 458 kts | 315° |
| 2026-04-26 09:08 | 48.76530 | 3.82660 | 36262 ft | 458 kts | 322° |
| 2026-04-26 09:09 | 48.81657 | 3.77000 | 36258 ft | 459 kts | 323° |
| 2026-04-26 09:09 | 48.86847 | 3.71366 | 36259 ft | 459 kts | 323° |
| 2026-04-26 09:10 | 48.92027 | 3.65714 | 36258 ft | 459 kts | 323° |
| 2026-04-26 09:10 | 48.97201 | 3.60028 | 36260 ft | 459 kts | 323° |
| 2026-04-26 09:11 | 49.02335 | 3.54363 | 36259 ft | 459 kts | 323° |
| 2026-04-26 09:11 | 49.07498 | 3.48651 | 36258 ft | 458 kts | 323° |
| 2026-04-26 09:12 | 49.12643 | 3.42945 | 36263 ft | 457 kts | 323° |
| 2026-04-26 09:12 | 49.17786 | 3.37225 | 36262 ft | 457 kts | 323° |
| 2026-04-26 09:13 | 49.22925 | 3.31497 | 36269 ft | 457 kts | 323° |
| 2026-04-26 09:13 | 49.28027 | 3.25794 | 36270 ft | 457 kts | 323° |
| 2026-04-26 09:14 | 49.33154 | 3.20047 | 36267 ft | 457 kts | 323° |
| 2026-04-26 09:14 | 49.38282 | 3.14284 | 36267 ft | 457 kts | 323° |
| 2026-04-26 09:15 | 49.43406 | 3.08512 | 36271 ft | 456 kts | 323° |
| 2026-04-26 09:15 | 49.48517 | 3.02739 | 36274 ft | 455 kts | 323° |
| 2026-04-26 09:16 | 49.53585 | 2.97000 | 36275 ft | 455 kts | 323° |
| 2026-04-26 09:16 | 49.58680 | 2.91213 | 36276 ft | 455 kts | 323° |
| 2026-04-26 09:17 | 49.63768 | 2.85420 | 36279 ft | 455 kts | 323° |
| 2026-04-26 09:17 | 49.68858 | 2.79608 | 36283 ft | 455 kts | 323° |
| 2026-04-26 09:18 | 49.73911 | 2.73825 | 36281 ft | 455 kts | 323° |
| 2026-04-26 09:18 | 49.78990 | 2.68004 | 36281 ft | 454 kts | 323° |
| 2026-04-26 09:19 | 49.84113 | 2.62305 | 36282 ft | 453 kts | 324° |
| 2026-04-26 09:19 | 49.89245 | 2.56653 | 36287 ft | 453 kts | 324° |
| 2026-04-26 09:20 | 49.94376 | 2.50964 | 36301 ft | 453 kts | 323° |
| 2026-04-26 09:20 | 49.99457 | 2.45293 | 36293 ft | 453 kts | 323° |
| 2026-04-26 09:21 | 50.04566 | 2.39567 | 36294 ft | 453 kts | 323° |
| 2026-04-26 09:21 | 50.09669 | 2.33837 | 36297 ft | 453 kts | 323° |
| 2026-04-26 09:22 | 50.14776 | 2.28085 | 36293 ft | 453 kts | 323° |
| 2026-04-26 09:22 | 50.19841 | 2.22368 | 36304 ft | 452 kts | 323° |
| 2026-04-26 09:23 | 50.24938 | 2.16598 | 36310 ft | 452 kts | 323° |
| 2026-04-26 09:23 | 50.30027 | 2.10821 | 36307 ft | 452 kts | 323° |
| 2026-04-26 09:24 | 50.35117 | 2.05027 | 36309 ft | 452 kts | 323° |
| 2026-04-26 09:24 | 50.40138 | 1.99103 | 36308 ft | 452 kts | 319° |
| 2026-04-26 09:25 | 50.44820 | 1.92631 | 36317 ft | 451 kts | 317° |
| 2026-04-26 09:25 | 50.49481 | 1.86019 | 36318 ft | 451 kts | 317° |
| 2026-04-26 09:26 | 50.54187 | 1.79473 | 36320 ft | 452 kts | 318° |
| 2026-04-26 09:26 | 50.58920 | 1.72966 | 36319 ft | 452 kts | 318° |
| 2026-04-26 09:27 | 50.63632 | 1.66495 | 36323 ft | 452 kts | 318° |
| 2026-04-26 09:27 | 50.68372 | 1.59968 | 36324 ft | 452 kts | 318° |
| 2026-04-26 09:28 | 50.73099 | 1.53419 | 36326 ft | 452 kts | 317° |
| 2026-04-26 09:28 | 50.77815 | 1.46860 | 36328 ft | 452 kts | 317° |
| 2026-04-26 09:29 | 50.82505 | 1.40337 | 36323 ft | 452 kts | 317° |
| 2026-04-26 09:29 | 50.87224 | 1.33746 | 36346 ft | 453 kts | 317° |
| 2026-04-26 09:30 | 50.91944 | 1.27138 | 36338 ft | 453 kts | 317° |
| 2026-04-26 09:30 | 50.96660 | 1.20520 | 36343 ft | 453 kts | 317° |
| 2026-04-26 09:31 | 51.01372 | 1.13890 | 36346 ft | 453 kts | 317° |
| 2026-04-26 09:31 | 51.06080 | 1.07364 | 36345 ft | 453 kts | 321° |
| 2026-04-26 09:32 | 51.11194 | 1.01475 | 36344 ft | 454 kts | 323° |
| 2026-04-26 09:32 | 51.16375 | 0.95720 | 36344 ft | 454 kts | 323° |
| 2026-04-26 09:33 | 51.21579 | 0.89967 | 36313 ft | 456 kts | 323° |
| 2026-04-26 09:33 | 51.26791 | 0.84180 | 36306 ft | 457 kts | 323° |
| 2026-04-26 09:34 | 51.31962 | 0.78414 | 36303 ft | 457 kts | 323° |
| 2026-04-26 09:34 | 51.37167 | 0.72590 | 36341 ft | 456 kts | 323° |
| 2026-04-26 09:35 | 51.42368 | 0.66752 | 36343 ft | 456 kts | 323° |
| 2026-04-26 09:35 | 51.47562 | 0.60904 | 36347 ft | 456 kts | 323° |
| 2026-04-26 09:36 | 51.52752 | 0.55045 | 36346 ft | 456 kts | 323° |
| 2026-04-26 09:36 | 51.57943 | 0.49170 | 36355 ft | 456 kts | 322° |
| 2026-04-26 09:37 | 51.63134 | 0.43276 | 36339 ft | 458 kts | 322° |
| 2026-04-26 09:37 | 51.68306 | 0.37390 | 36339 ft | 458 kts | 322° |
| 2026-04-26 09:38 | 51.73515 | 0.31444 | 36342 ft | 458 kts | 322° |
| 2026-04-26 09:38 | 51.78714 | 0.25491 | 36346 ft | 459 kts | 322° |
| 2026-04-26 09:39 | 51.83913 | 0.19521 | 36348 ft | 459 kts | 322° |
| 2026-04-26 09:39 | 51.89078 | 0.13573 | 36346 ft | 459 kts | 322° |
| 2026-04-26 09:40 | 51.94274 | 0.07570 | 36344 ft | 459 kts | 322° |
| 2026-04-26 09:40 | 51.99466 | 0.01555 | 36340 ft | 459 kts | 322° |
| 2026-04-26 09:41 | 52.04864 | -0.04009 | 36341 ft | 462 kts | 328° |
| 2026-04-26 09:41 | 52.10514 | -0.09051 | 36330 ft | 464 kts | 328° |
| 2026-04-26 09:42 | 52.16160 | -0.13986 | 36331 ft | 464 kts | 329° |
| 2026-04-26 09:42 | 52.21850 | -0.18966 | 36333 ft | 464 kts | 328° |
| 2026-04-26 09:43 | 52.27535 | -0.23971 | 36332 ft | 464 kts | 328° |
| 2026-04-26 09:43 | 52.33215 | -0.28990 | 36334 ft | 464 kts | 328° |
| 2026-04-26 09:44 | 52.38851 | -0.33991 | 36339 ft | 464 kts | 328° |
| 2026-04-26 09:44 | 52.44513 | -0.39036 | 36342 ft | 464 kts | 328° |
| 2026-04-26 09:45 | 52.50183 | -0.44099 | 36345 ft | 464 kts | 328° |
| 2026-04-26 09:45 | 52.55848 | -0.49171 | 36347 ft | 464 kts | 328° |
| 2026-04-26 09:46 | 52.61503 | -0.54248 | 36347 ft | 463 kts | 328° |
| 2026-04-26 09:46 | 52.67124 | -0.59310 | 36346 ft | 464 kts | 328° |
| 2026-04-26 09:47 | 52.72786 | -0.64424 | 36345 ft | 464 kts | 328° |
| 2026-04-26 09:47 | 52.77481 | -0.68676 | 36352 ft | 464 kts | 328° |
| 2026-04-26 09:48 | 52.83130 | -0.73806 | 36340 ft | 463 kts | 328° |
| 2026-04-26 09:48 | 52.89696 | -0.79789 | 36346 ft | 463 kts | 328° |
| 2026-04-26 09:49 | 52.95338 | -0.84945 | 36343 ft | 463 kts | 328° |
| 2026-04-26 09:49 | 53.00064 | -0.89278 | 36340 ft | 463 kts | 328° |
| 2026-04-26 09:50 | 53.05673 | -0.94423 | 36333 ft | 463 kts | 328° |
| 2026-04-26 09:50 | 53.11302 | -0.99610 | 36333 ft | 463 kts | 328° |
| 2026-04-26 09:51 | 53.16943 | -1.04827 | 36332 ft | 464 kts | 328° |
| 2026-04-26 09:51 | 53.22596 | -1.10067 | 36333 ft | 465 kts | 328° |
| 2026-04-26 09:52 | 53.28255 | -1.15325 | 36338 ft | 465 kts | 327° |
| 2026-04-26 09:52 | 53.36678 | -1.23182 | 36349 ft | 464 kts | 327° |
| 2026-04-26 09:53 | 53.42316 | -1.28463 | 36341 ft | 464 kts | 327° |
| 2026-04-26 09:53 | 53.47953 | -1.33759 | 36345 ft | 464 kts | 327° |
| 2026-04-26 09:54 | 53.53575 | -1.39075 | 36350 ft | 464 kts | 327° |
| 2026-04-26 09:54 | 53.59202 | -1.44412 | 36342 ft | 464 kts | 327° |
| 2026-04-26 09:55 | 53.64828 | -1.49760 | 36332 ft | 464 kts | 327° |
| 2026-04-26 09:55 | 53.70413 | -1.55082 | 36322 ft | 464 kts | 327° |
| 2026-04-26 09:56 | 53.75623 | -1.61380 | 36316 ft | 461 kts | 316° |
| 2026-04-26 09:56 | 53.80428 | -1.68553 | 36314 ft | 461 kts | 315° |
| 2026-04-26 09:57 | 53.85162 | -1.75869 | 36317 ft | 461 kts | 314° |
| 2026-04-26 09:57 | 53.89889 | -1.83212 | 36334 ft | 461 kts | 314° |
| 2026-04-26 09:58 | 53.94579 | -1.90493 | 36336 ft | 461 kts | 314° |
| 2026-04-26 09:58 | 53.99310 | -1.97846 | 36330 ft | 461 kts | 314° |
| 2026-04-26 09:59 | 54.04476 | -2.04340 | 36324 ft | 465 kts | 325° |
| 2026-04-26 09:59 | 54.10033 | -2.09992 | 36325 ft | 466 kts | 326° |
| 2026-04-26 10:00 | 54.15626 | -2.15628 | 36316 ft | 467 kts | 326° |
| 2026-04-26 10:00 | 54.21187 | -2.21236 | 36316 ft | 468 kts | 326° |
| 2026-04-26 10:01 | 54.26788 | -2.26897 | 36314 ft | 468 kts | 326° |
| 2026-04-26 10:01 | 54.32386 | -2.32572 | 36315 ft | 468 kts | 326° |
| 2026-04-26 10:02 | 54.37980 | -2.38262 | 36305 ft | 468 kts | 326° |
| 2026-04-26 10:02 | 54.43530 | -2.43925 | 36300 ft | 467 kts | 325° |
| 2026-04-26 10:03 | 54.49121 | -2.49647 | 36306 ft | 467 kts | 325° |
| 2026-04-26 10:03 | 54.54707 | -2.55383 | 36292 ft | 467 kts | 325° |
| 2026-04-26 10:04 | 54.60279 | -2.61122 | 35879 ft | 466 kts | 325° |
| 2026-04-26 10:04 | 54.63020 | -2.63954 | 35370 ft | 465 kts | 325° |
| 2026-04-26 10:04 | 54.65829 | -2.66858 | 34749 ft | 465 kts | 325° |
| 2026-04-26 10:05 | 54.68573 | -2.69701 | 34035 ft | 465 kts | 324° |
| 2026-04-26 10:05 | 54.71348 | -2.72582 | 33221 ft | 467 kts | 324° |
| 2026-04-26 10:05 | 54.74142 | -2.75488 | 32480 ft | 470 kts | 324° |
| 2026-04-26 10:05 | 54.76944 | -2.78405 | 31743 ft | 470 kts | 324° |
| 2026-04-26 10:06 | 54.79746 | -2.81325 | 30981 ft | 469 kts | 324° |
| 2026-04-26 10:06 | 54.82537 | -2.84238 | 30226 ft | 467 kts | 324° |
| 2026-04-26 10:06 | 54.85303 | -2.87130 | 29373 ft | 464 kts | 324° |
| 2026-04-26 10:06 | 54.88121 | -2.89856 | 28544 ft | 464 kts | 330° |
| 2026-04-26 10:07 | 54.91077 | -2.92113 | 27735 ft | 463 kts | 333° |
| 2026-04-26 10:07 | 54.94047 | -2.94253 | 26971 ft | 461 kts | 333° |
| 2026-04-26 10:07 | 54.96960 | -2.96349 | 26210 ft | 458 kts | 334° |
| 2026-04-26 10:07 | 54.99894 | -2.98467 | 25478 ft | 455 kts | 334° |
| 2026-04-26 10:08 | 55.02803 | -3.00574 | 24761 ft | 451 kts | 334° |
| 2026-04-26 10:08 | 55.05691 | -3.02672 | 24056 ft | 448 kts | 334° |
| 2026-04-26 10:08 | 55.08555 | -3.04757 | 23261 ft | 443 kts | 334° |
| 2026-04-26 10:08 | 55.11338 | -3.06782 | 22445 ft | 424 kts | 334° |
| 2026-04-26 10:09 | 55.14040 | -3.08755 | 21668 ft | 420 kts | 334° |
| 2026-04-26 10:09 | 55.16722 | -3.10719 | 20893 ft | 417 kts | 334° |
| 2026-04-26 10:09 | 55.19354 | -3.12650 | 20150 ft | 413 kts | 334° |
| 2026-04-26 10:09 | 55.21987 | -3.14585 | 19425 ft | 409 kts | 334° |
| 2026-04-26 10:10 | 55.24605 | -3.16512 | 18775 ft | 406 kts | 334° |
| 2026-04-26 10:10 | 55.27195 | -3.18420 | 18072 ft | 402 kts | 334° |
| 2026-04-26 10:10 | 55.29834 | -3.20023 | 17348 ft | 401 kts | 346° |
| 2026-04-26 10:10 | 55.32583 | -3.20226 | 16667 ft | 399 kts | 1° |
| 2026-04-26 10:11 | 55.35359 | -3.19768 | 16003 ft | 401 kts | 3° |
| 2026-04-26 10:11 | 55.38113 | -3.19261 | 15425 ft | 389 kts | 3° |
| 2026-04-26 10:11 | 55.40720 | -3.18797 | 14942 ft | 365 kts | 3° |
| 2026-04-26 10:11 | 55.43188 | -3.18375 | 14459 ft | 348 kts | 2° |
| 2026-04-26 10:12 | 55.45577 | -3.17986 | 13977 ft | 345 kts | 2° |
| 2026-04-26 10:12 | 55.47974 | -3.17606 | 13440 ft | 346 kts | 2° |
| 2026-04-26 10:12 | 55.50333 | -3.17234 | 12928 ft | 343 kts | 2° |
| 2026-04-26 10:12 | 55.52695 | -3.16861 | 12407 ft | 339 kts | 2° |
| 2026-04-26 10:13 | 55.55030 | -3.16492 | 11882 ft | 333 kts | 2° |
| 2026-04-26 10:13 | 55.57284 | -3.16133 | 11375 ft | 316 kts | 2° |
| 2026-04-26 10:13 | 55.59435 | -3.15791 | 10863 ft | 306 kts | 2° |
| 2026-04-26 10:13 | 55.61541 | -3.15460 | 10423 ft | 304 kts | 2° |
| 2026-04-26 10:14 | 55.63650 | -3.15132 | 10078 ft | 302 kts | 2° |
| 2026-04-26 10:14 | 55.65734 | -3.14804 | 9746 ft | 300 kts | 2° |
| 2026-04-26 10:14 | 55.67779 | -3.14480 | 9429 ft | 298 kts | 2° |
| 2026-04-26 10:14 | 55.69836 | -3.14155 | 9119 ft | 296 kts | 2° |
| 2026-04-26 10:15 | 55.71883 | -3.13832 | 8812 ft | 294 kts | 2° |
| 2026-04-26 10:15 | 55.73911 | -3.13360 | 8504 ft | 294 kts | 9° |
| 2026-04-26 10:15 | 55.75871 | -3.12320 | 8200 ft | 294 kts | 18° |
| 2026-04-26 10:15 | 55.77775 | -3.11051 | 7903 ft | 292 kts | 19° |
| 2026-04-26 10:16 | 55.79666 | -3.09761 | 7624 ft | 290 kts | 19° |
| 2026-04-26 10:16 | 55.81546 | -3.08479 | 7378 ft | 289 kts | 19° |
| 2026-04-26 10:16 | 55.83400 | -3.07215 | 7123 ft | 279 kts | 19° |
| 2026-04-26 10:16 | 55.85174 | -3.06004 | 6870 ft | 267 kts | 19° |
| 2026-04-26 10:17 | 55.86858 | -3.04854 | 6611 ft | 258 kts | 19° |
| 2026-04-26 10:17 | 55.88506 | -3.03726 | 6359 ft | 252 kts | 19° |
| 2026-04-26 10:17 | 55.90132 | -3.02612 | 6093 ft | 250 kts | 19° |
| 2026-04-26 10:17 | 55.91750 | -3.01498 | 5829 ft | 249 kts | 19° |
| 2026-04-26 10:18 | 55.93391 | -3.00576 | 5583 ft | 247 kts | 11° |
| 2026-04-26 10:18 | 55.95061 | -2.99922 | 5335 ft | 245 kts | 9° |
| 2026-04-26 10:18 | 55.96722 | -2.99311 | 5077 ft | 240 kts | 9° |
| 2026-04-26 10:18 | 55.98332 | -2.98720 | 4806 ft | 232 kts | 9° |
| 2026-04-26 10:19 | 55.99899 | -2.98272 | 4540 ft | 225 kts | 359° |
| 2026-04-26 10:19 | 56.01412 | -2.98715 | 4286 ft | 219 kts | 336° |
| 2026-04-26 10:19 | 56.02775 | -2.99836 | 4053 ft | 217 kts | 330° |
| 2026-04-26 10:19 | 56.04086 | -3.01047 | 3998 ft | 204 kts | 329° |
| 2026-04-26 10:20 | 56.05235 | -3.02311 | 3988 ft | 189 kts | 311° |
| 2026-04-26 10:20 | 56.05674 | -3.04415 | 3985 ft | 182 kts | 267° |
| 2026-04-26 10:20 | 56.05343 | -3.06574 | 3956 ft | 181 kts | 243° |
| 2026-04-26 10:20 | 56.04710 | -3.08509 | 3772 ft | 180 kts | 238° |
| 2026-04-26 10:21 | 56.04057 | -3.10413 | 3494 ft | 179 kts | 239° |
| 2026-04-26 10:21 | 56.03418 | -3.12330 | 3212 ft | 179 kts | 239° |
| 2026-04-26 10:21 | 56.02785 | -3.14209 | 2943 ft | 178 kts | 239° |
| 2026-04-26 10:21 | 56.02157 | -3.16069 | 2705 ft | 172 kts | 239° |
| 2026-04-26 10:22 | 56.01550 | -3.17869 | 2477 ft | 166 kts | 239° |
| 2026-04-26 10:22 | 56.00970 | -3.19589 | 2231 ft | 157 kts | 238° |
| 2026-04-26 10:22 | 56.00431 | -3.21183 | 2054 ft | 142 kts | 238° |
| 2026-04-26 10:22 | 55.99942 | -3.22631 | 1846 ft | 131 kts | 238° |
| 2026-04-26 10:23 | 55.99474 | -3.24017 | 1683 ft | 130 kts | 238° |
| 2026-04-26 10:23 | 55.99006 | -3.25406 | 1495 ft | 131 kts | 238° |
| 2026-04-26 10:23 | 55.98546 | -3.26804 | 1302 ft | 130 kts | 239° |
| 2026-04-26 10:23 | 55.98099 | -3.28178 | 1095 ft | 129 kts | 239° |
| 2026-04-26 10:24 | 55.97625 | -3.29538 | 946 ft | 129 kts | 238° |
| 2026-04-26 10:24 | 55.97161 | -3.30906 | 784 ft | 129 kts | 238° |
| 2026-04-26 10:24 | 55.96689 | -3.32267 | 598 ft | 128 kts | 239° |
| 2026-04-26 10:24 | 55.96229 | -3.33633 | 403 ft | 128 kts | 240° |
| 2026-04-26 10:25 | 55.95768 | -3.34984 | 249 ft | 128 kts | 240° |
| 2026-04-26 10:25 | 55.95310 | -3.36332 | 120 ft | 123 kts | 239° |
| 2026-04-26 10:25 | 55.94940 | -3.37424 | 112 ft | 78 kts | 239° |
| 2026-04-26 10:25 | 55.94702 | -3.38129 | 114 ft | 56 kts | 239° |
| 2026-04-26 10:26 | 55.94543 | -3.38597 | 113 ft | 31 kts | 239° |
| 2026-04-26 10:26 | 55.94454 | -3.38862 | 114 ft | 19 kts | 239° |
| 2026-04-26 10:26 | 55.94390 | -3.38959 | 114 ft | 8 kts | 180° |
| 2026-04-26 10:26 | 55.94330 | -3.38912 | 116 ft | 11 kts | 149° |
| 2026-04-26 10:27 | 55.94287 | -3.38830 | 117 ft | 5 kts | 97° |
| 2026-04-26 10:27 | 55.94299 | -3.38743 | 118 ft | 10 kts | 65° |
| 2026-04-26 10:27 | 55.94349 | -3.38599 | 116 ft | 16 kts | 58° |
| 2026-04-26 10:27 | 55.94410 | -3.38418 | 116 ft | 18 kts | 59° |
| 2026-04-26 10:28 | 55.94478 | -3.38216 | 116 ft | 20 kts | 59° |
| 2026-04-26 10:28 | 55.94554 | -3.37993 | 116 ft | 22 kts | 58° |
| 2026-04-26 10:28 | 55.94635 | -3.37753 | 116 ft | 23 kts | 59° |
| 2026-04-26 10:28 | 55.94723 | -3.37496 | 118 ft | 25 kts | 59° |
| 2026-04-26 10:29 | 55.94814 | -3.37227 | 116 ft | 26 kts | 59° |
| 2026-04-26 10:29 | 55.94911 | -3.36940 | 116 ft | 28 kts | 59° |
| 2026-04-26 10:29 | 55.95010 | -3.36647 | 118 ft | 27 kts | 59° |
| 2026-04-26 10:29 | 55.95065 | -3.36484 | 116 ft | 12 kts | 60° |
| 2026-04-26 10:30 | 55.95058 | -3.36404 | 115 ft | 6 kts | 129° |
| 2026-04-26 10:30 | 55.95019 | -3.36353 | 115 ft | 8 kts | 145° |
| 2026-04-26 10:30 | 55.94994 | -3.36290 | 116 ft | 5 kts | 115° |
| 2026-04-26 10:30 | 55.94988 | -3.36271 | 120 ft | 3 kts | 117° |
| 2026-04-26 10:31 | 55.94981 | -3.36248 | 116 ft | 2 kts | 117° |
| 2026-04-26 10:31 | 55.94981 | -3.36247 | 116 ft | 0 kts | 117° |